createdAt,value
2022-09-09T00:00:31.108Z,596.30
2022-09-09T00:02:57.742Z,599.43
2022-09-09T00:05:24.266Z,599.33
2022-09-09T00:07:50.702Z,592.50
2022-09-09T00:10:19.439Z,601.40
2022-09-09T00:12:45.834Z,599.03
2022-09-09T00:15:12.268Z,593.57
2022-09-09T00:17:38.675Z,596.53
2022-09-09T00:20:05.074Z,601.53
2022-09-09T00:22:31.509Z,591.83
2022-09-09T00:24:57.919Z,594.67
2022-09-09T00:27:24.342Z,587.77
2022-09-09T00:29:50.776Z,597.10
2022-09-09T00:32:17.243Z,587.47
2022-09-09T00:34:43.648Z,592.50
2022-09-09T00:37:10.056Z,599.33
2022-09-09T00:39:36.631Z,591.17
2022-09-09T00:42:03.106Z,592.57
2022-09-09T00:44:29.507Z,596.33
2022-09-09T00:46:55.979Z,596.23
2022-09-09T00:49:22.396Z,593.13
2022-09-09T00:51:48.864Z,589.73
2022-09-09T00:54:15.300Z,595.70
2022-09-09T00:56:41.833Z,586.63
2022-09-09T00:59:08.239Z,596.33
2022-09-09T01:01:34.697Z,588.80
2022-09-09T01:04:01.260Z,596.40
2022-09-09T01:06:27.699Z,585.87
2022-09-09T01:08:54.108Z,590.90
2022-09-09T01:11:20.529Z,592.40
2022-09-09T01:13:46.919Z,595.80
2022-09-09T01:16:13.378Z,590.17
2022-09-09T01:18:39.829Z,587.47
2022-09-09T01:21:06.240Z,581.90
2022-09-09T01:23:32.653Z,582.60
2022-09-09T01:25:59.090Z,592.60
2022-09-09T01:28:25.496Z,595.47
2022-09-09T01:30:51.981Z,595.50
2022-09-09T01:33:18.446Z,592.33
2022-09-09T01:35:44.865Z,594.13
2022-09-09T01:38:11.264Z,581.57
2022-09-09T01:40:37.777Z,582.37
2022-09-09T01:43:04.204Z,583.07
2022-09-09T01:45:30.635Z,583.90
2022-09-09T01:47:57.061Z,595.30
2022-09-09T01:50:23.478Z,579.47
2022-09-09T01:52:49.894Z,586.63
2022-09-09T01:55:16.307Z,589.07
2022-09-09T01:57:42.800Z,586.77
2022-09-09T02:00:09.211Z,597.47
2022-09-09T02:02:35.706Z,586.93
2022-09-09T02:05:02.153Z,580.90
2022-09-09T02:07:28.565Z,587.23
2022-09-09T02:09:54.976Z,654.97
2022-09-09T02:12:21.456Z,581.90
2022-09-09T02:14:47.943Z,593.93
2022-09-09T02:17:14.353Z,586.17
2022-09-09T02:19:40.755Z,591.53
2022-09-09T02:22:07.150Z,591.00
2022-09-09T02:24:33.555Z,589.83
2022-09-09T02:26:59.984Z,588.87
2022-09-09T02:29:26.385Z,584.90
2022-09-09T02:31:52.833Z,586.87
2022-09-09T02:34:19.255Z,589.33
2022-09-09T02:36:45.689Z,581.50
2022-09-09T02:39:12.084Z,590.97
2022-09-09T02:41:38.537Z,579.67
2022-09-09T02:44:04.950Z,588.40
2022-09-09T02:46:31.364Z,578.13
2022-09-09T02:48:57.876Z,586.67
2022-09-09T02:51:24.301Z,590.23
2022-09-09T02:53:50.729Z,579.10
2022-09-09T02:56:17.173Z,580.33
2022-09-09T02:58:43.590Z,591.33
2022-09-09T03:01:10.078Z,581.07
2022-09-09T03:03:36.549Z,582.17
2022-09-09T03:06:02.968Z,595.63
2022-09-09T03:08:29.419Z,587.03
2022-09-09T03:10:55.894Z,595.00
2022-09-09T03:13:22.286Z,583.50
2022-09-09T03:15:48.693Z,591.00
2022-09-09T03:18:15.094Z,591.03
2022-09-09T03:20:41.537Z,584.93
2022-09-09T03:23:11.297Z,581.17
2022-09-09T03:25:40.089Z,587.97
2022-09-09T03:28:06.496Z,591.50
2022-09-09T03:30:32.906Z,582.50
2022-09-09T03:32:59.579Z,594.73
2022-09-09T03:35:26.029Z,577.60
2022-09-09T03:37:52.479Z,591.93
2022-09-09T03:40:18.974Z,583.10
2022-09-09T03:42:45.463Z,590.77
2022-09-09T03:45:11.870Z,587.47
2022-09-09T03:47:38.293Z,582.27
2022-09-09T03:50:04.713Z,583.17
2022-09-09T03:52:31.110Z,586.50
2022-09-09T03:54:57.507Z,582.33
2022-09-09T03:57:23.927Z,584.63
2022-09-09T03:59:50.321Z,588.47
2022-09-09T04:02:16.846Z,587.47
2022-09-09T04:04:43.355Z,581.50
2022-09-09T04:07:09.815Z,587.07
2022-09-09T04:09:36.360Z,589.90
2022-09-09T04:12:02.831Z,579.90
2022-09-09T04:14:29.222Z,581.87
2022-09-09T04:16:55.706Z,596.00
2022-09-09T04:19:22.204Z,595.73
2022-09-09T04:21:48.664Z,590.70
2022-09-09T04:24:15.090Z,584.70
2022-09-09T04:26:41.520Z,589.50
2022-09-09T04:29:07.983Z,577.93
2022-09-09T04:31:34.485Z,577.10
2022-09-09T04:34:00.947Z,586.83
2022-09-09T04:36:27.350Z,591.23
2022-09-09T04:38:53.780Z,592.80
2022-09-09T04:41:20.201Z,583.83
2022-09-09T04:43:46.678Z,590.43
2022-09-09T04:46:13.317Z,583.60
2022-09-09T04:48:39.768Z,588.47
2022-09-09T04:51:06.197Z,583.47
2022-09-09T04:53:32.606Z,583.27
2022-09-09T04:55:59.027Z,581.63
2022-09-09T04:58:25.488Z,590.73
2022-09-09T05:00:51.969Z,583.33
2022-09-09T05:03:18.412Z,580.57
2022-09-09T05:05:44.826Z,585.23
2022-09-09T05:08:11.226Z,583.40
2022-09-09T05:10:37.674Z,587.73
2022-09-09T05:13:04.294Z,581.97
2022-09-09T05:15:30.731Z,589.67
2022-09-09T05:17:57.156Z,585.37
2022-09-09T05:20:23.559Z,577.53
2022-09-09T05:22:49.953Z,578.13
2022-09-09T05:25:16.341Z,579.97
2022-09-09T05:27:42.787Z,571.37
2022-09-09T05:30:09.200Z,588.80
2022-09-09T05:32:35.651Z,587.63
2022-09-09T05:35:02.165Z,594.73
2022-09-09T05:37:28.596Z,586.30
2022-09-09T05:39:55.000Z,590.20
2022-09-09T05:42:21.492Z,582.63
2022-09-09T05:44:47.889Z,582.13
2022-09-09T05:47:14.323Z,581.50
2022-09-09T05:49:40.757Z,579.87
2022-09-09T05:52:07.189Z,585.33
2022-09-09T05:54:33.599Z,589.23
2022-09-09T05:57:00.017Z,588.10
2022-09-09T05:59:26.398Z,582.63
2022-09-09T06:01:55.913Z,582.70
2022-09-09T06:04:22.387Z,584.33
2022-09-09T06:06:48.789Z,580.10
2022-09-09T06:09:15.185Z,588.77
2022-09-09T06:11:41.593Z,581.50
2022-09-09T06:14:07.981Z,590.53
2022-09-09T06:16:34.493Z,597.03
2022-09-09T06:19:00.937Z,590.20
2022-09-09T06:21:27.369Z,595.30
2022-09-09T06:23:56.657Z,586.47
2022-09-09T06:26:25.507Z,584.20
2022-09-09T06:28:51.910Z,578.90
2022-09-09T06:31:18.391Z,579.83
2022-09-09T06:33:44.848Z,583.73
2022-09-09T06:36:11.275Z,593.60
2022-09-09T06:38:37.953Z,591.97
2022-09-09T06:41:04.451Z,582.20
2022-09-09T06:43:30.854Z,590.93
2022-09-09T06:46:00.253Z,593.97
2022-09-09T06:48:26.660Z,586.63
2022-09-09T06:50:53.079Z,583.83
2022-09-09T06:53:19.479Z,579.53
2022-09-09T06:55:45.891Z,578.17
2022-09-09T06:58:12.320Z,582.07
2022-09-09T07:00:38.772Z,587.23
2022-09-09T07:03:05.418Z,599.33
2022-09-09T07:05:31.824Z,584.80
2022-09-09T07:07:58.398Z,591.40
2022-09-09T07:10:24.829Z,579.43
2022-09-09T07:12:51.254Z,585.20
2022-09-09T07:15:17.668Z,582.43
2022-09-09T07:17:44.103Z,591.40
2022-09-09T07:20:10.567Z,594.17
2022-09-09T07:22:36.988Z,585.77
2022-09-09T07:25:03.386Z,588.60
2022-09-09T07:27:29.808Z,589.53
2022-09-09T07:29:56.210Z,583.67
2022-09-09T07:32:22.681Z,585.27
2022-09-09T07:34:49.088Z,588.87
2022-09-09T07:37:15.521Z,585.53
2022-09-09T07:39:42.027Z,584.07
2022-09-09T07:42:08.530Z,588.47
2022-09-09T07:44:34.919Z,575.47
2022-09-09T07:47:01.366Z,584.33
2022-09-09T07:49:32.611Z,587.33
2022-09-09T07:51:59.394Z,573.77
2022-09-09T07:54:25.805Z,579.00
2022-09-09T07:56:52.232Z,589.23
2022-09-09T07:59:18.630Z,585.30
2022-09-09T08:01:45.109Z,587.30
2022-09-09T08:04:11.536Z,581.03
2022-09-09T08:06:37.942Z,580.50
2022-09-09T08:09:04.339Z,584.27
2022-09-09T08:11:32.453Z,576.23
2022-09-09T08:14:02.610Z,572.40
2022-09-09T08:16:29.112Z,574.77
2022-09-09T08:18:55.528Z,575.23
2022-09-09T08:21:21.930Z,577.33
2022-09-09T08:23:48.343Z,590.43
2022-09-09T08:26:14.760Z,587.40
2022-09-09T08:28:41.160Z,587.57
2022-09-09T08:31:07.665Z,582.83
2022-09-09T08:33:34.211Z,574.90
2022-09-09T08:36:00.643Z,576.57
2022-09-09T08:38:27.071Z,589.17
2022-09-09T08:40:53.489Z,589.60
2022-09-09T08:43:19.933Z,581.27
2022-09-09T08:45:46.407Z,585.27
2022-09-09T08:48:12.870Z,591.67
2022-09-09T08:50:39.351Z,587.20
2022-09-09T08:53:05.820Z,586.20
2022-09-09T08:55:32.220Z,582.00
2022-09-09T08:57:58.665Z,584.60
2022-09-09T09:00:25.096Z,592.83
2022-09-09T09:02:51.506Z,588.60
2022-09-09T09:05:17.917Z,589.93
2022-09-09T09:07:44.358Z,586.53
2022-09-09T09:10:30.580Z,614.10
2022-09-09T09:12:57.190Z,576.70
2022-09-09T09:15:23.607Z,578.63
2022-09-09T09:17:50.080Z,584.07
2022-09-09T09:20:16.487Z,576.77
2022-09-09T09:22:42.931Z,577.07
2022-09-09T09:25:09.368Z,584.80
2022-09-09T09:27:35.785Z,587.37
2022-09-09T09:32:48.607Z,577.77
2022-09-09T09:35:15.023Z,583.67
2022-09-09T09:40:27.922Z,579.70
2022-09-09T09:42:54.341Z,577.37
2022-09-09T09:45:20.754Z,573.40
2022-09-09T09:47:47.208Z,576.50
2022-09-09T09:50:13.633Z,574.87
2022-09-09T09:52:40.090Z,583.93
2022-09-09T09:55:07.845Z,588.63
2022-09-09T09:57:34.621Z,586.60
2022-09-09T10:00:01.049Z,574.70
2022-09-09T10:02:27.494Z,585.00
2022-09-09T10:04:53.966Z,580.77
2022-09-09T10:07:20.459Z,574.63
2022-09-09T10:09:47.081Z,607.23
2022-09-09T10:12:13.557Z,584.50
2022-09-09T10:14:39.996Z,585.57
2022-09-09T10:17:06.597Z,590.13
2022-09-09T10:19:32.992Z,584.37
2022-09-09T10:21:59.569Z,583.73
2022-09-09T10:24:25.998Z,588.00
2022-09-09T10:26:52.465Z,577.00
2022-09-09T10:29:18.867Z,573.90
2022-09-09T10:31:45.263Z,579.57
2022-09-09T10:34:11.870Z,571.83
2022-09-09T10:36:38.265Z,568.07
2022-09-09T10:39:04.707Z,583.33
2022-09-09T10:41:31.102Z,579.20
2022-09-09T10:44:00.390Z,581.00
2022-09-09T10:46:27.281Z,568.47
2022-09-09T10:48:53.784Z,565.80
2022-09-09T10:51:20.186Z,571.00
2022-09-09T10:53:46.616Z,579.37
2022-09-09T10:56:13.163Z,575.33
2022-09-09T10:58:39.599Z,568.03
2022-09-09T11:01:06.062Z,582.77
2022-09-09T11:03:32.640Z,579.57
2022-09-09T11:05:59.115Z,574.30
2022-09-09T11:08:25.606Z,575.10
2022-09-09T11:10:52.017Z,578.40
2022-09-09T11:13:18.464Z,571.73
2022-09-09T11:15:44.876Z,574.60
2022-09-09T11:18:11.293Z,580.47
2022-09-09T11:20:37.825Z,583.07
2022-09-09T11:23:04.281Z,574.83
2022-09-09T11:25:30.740Z,576.03
2022-09-09T11:27:57.151Z,583.70
2022-09-09T11:30:51.198Z,584.63
2022-09-09T11:33:09.951Z,573.63
2022-09-09T11:35:36.861Z,583.03
2022-09-09T11:38:03.393Z,575.80
2022-09-09T11:40:29.801Z,583.20
2022-09-09T11:42:56.283Z,584.97
2022-09-09T11:45:22.697Z,579.20
2022-09-09T11:47:49.143Z,583.37
2022-09-09T11:50:15.551Z,576.33
2022-09-09T11:52:41.979Z,590.97
2022-09-09T11:55:08.389Z,595.13
2022-09-09T11:57:34.827Z,598.93
2022-09-09T12:00:01.231Z,590.93
2022-09-09T12:02:27.728Z,596.40
2022-09-09T12:04:54.227Z,591.13
2022-09-09T12:07:20.667Z,587.43
2022-09-09T12:09:47.070Z,594.60
2022-09-09T12:12:13.499Z,590.93
2022-09-09T12:14:39.929Z,592.27
2022-09-09T12:17:06.347Z,587.80
2022-09-09T12:19:32.755Z,589.30
2022-09-09T12:21:59.184Z,582.63
2022-09-09T12:24:25.601Z,574.07
2022-09-09T12:26:52.007Z,586.07
2022-09-09T12:29:18.428Z,583.87
2022-09-09T12:31:45.851Z,580.33
2022-09-09T12:34:12.447Z,575.83
2022-09-09T12:36:38.856Z,577.10
2022-09-09T12:39:05.297Z,576.87
2022-09-09T12:41:31.690Z,590.07
2022-09-09T12:43:58.110Z,584.20
2022-09-09T12:46:24.585Z,582.60
2022-09-09T12:48:51.079Z,584.17
2022-09-09T12:51:17.486Z,580.23
2022-09-09T12:53:43.943Z,582.93
2022-09-09T12:56:10.363Z,591.40
2022-09-09T12:58:36.808Z,585.60
2022-09-09T13:01:03.334Z,579.63
2022-09-09T13:03:29.775Z,586.20
2022-09-09T13:05:56.173Z,582.33
2022-09-09T13:08:22.619Z,575.97
2022-09-09T13:10:53.197Z,575.77
2022-09-09T13:13:21.191Z,580.80
2022-09-09T13:15:47.634Z,585.50
2022-09-09T13:18:14.114Z,586.47
2022-09-09T13:20:40.529Z,584.43
2022-09-09T13:23:06.957Z,590.67
2022-09-09T13:25:33.383Z,586.90
2022-09-09T13:27:59.806Z,590.57
2022-09-09T13:30:26.306Z,562.80
2022-09-09T13:32:52.818Z,583.03
2022-09-09T13:35:19.223Z,579.33
2022-09-09T13:37:45.668Z,578.10
2022-09-09T13:40:12.201Z,588.33
2022-09-09T13:42:38.652Z,584.57
2022-09-09T13:45:05.061Z,579.43
2022-09-09T13:47:31.491Z,584.40
2022-09-09T13:49:57.893Z,584.70
2022-09-09T13:52:30.598Z,576.23
2022-09-09T13:54:56.986Z,584.13
2022-09-09T13:57:23.496Z,580.17
2022-09-09T14:00:06.362Z,577.13
2022-09-09T14:02:36.661Z,568.90
2022-09-09T14:05:04.407Z,568.50
2022-09-09T14:07:35.057Z,585.53
2022-09-09T14:10:04.799Z,580.87
2022-09-09T14:12:33.552Z,578.70
2022-09-09T14:15:14.096Z,574.57
2022-09-09T14:17:50.899Z,570.77
2022-09-09T14:20:17.297Z,543.50
2022-09-09T14:22:43.713Z,574.13
2022-09-09T14:25:20.366Z,585.47
2022-09-09T14:27:46.762Z,584.47
2022-09-09T14:30:14.102Z,564.33
2022-09-09T14:32:41.869Z,575.33
2022-09-09T14:35:12.491Z,594.47
2022-09-09T14:40:29.391Z,582.40
2022-09-09T14:42:57.038Z,575.17
2022-09-09T14:45:23.571Z,576.17
2022-09-09T14:47:50.008Z,584.47
2022-09-09T14:50:16.406Z,585.60
2022-09-09T14:52:42.808Z,582.33
2022-09-09T14:55:10.229Z,575.27
2022-09-09T14:57:36.647Z,579.63
2022-09-09T15:00:03.078Z,585.50
2022-09-09T15:02:29.547Z,582.87
2022-09-09T15:04:56.069Z,580.20
2022-09-09T15:07:22.502Z,588.10
2022-09-09T15:09:48.935Z,575.40
2022-09-09T15:12:15.340Z,572.20
2022-09-09T15:14:41.766Z,578.30
2022-09-09T15:17:09.494Z,587.17
2022-09-09T15:19:35.962Z,577.00
2022-09-09T15:22:02.374Z,585.63
2022-09-09T15:24:28.791Z,578.20
2022-09-09T15:26:55.197Z,573.70
2022-09-09T15:29:21.627Z,574.90
2022-09-09T15:31:48.058Z,570.63
2022-09-09T15:34:14.572Z,573.87
2022-09-09T15:36:41.023Z,587.40
2022-09-09T15:39:07.431Z,577.43
2022-09-09T15:41:34.004Z,580.50
2022-09-09T15:44:00.436Z,586.20
2022-09-09T15:46:26.861Z,575.17
2022-09-09T15:48:54.417Z,579.70
2022-09-09T15:51:41.123Z,581.83
2022-09-09T15:54:07.590Z,564.00
2022-09-09T15:56:33.969Z,564.77
2022-09-09T15:59:00.407Z,572.17
2022-09-09T16:01:26.872Z,572.03
2022-09-09T16:03:53.309Z,575.60
2022-09-09T16:06:19.739Z,578.03
2022-09-09T16:08:46.158Z,575.60
2022-09-09T16:11:12.604Z,574.90
2022-09-09T16:13:39.031Z,568.57
2022-09-09T16:16:05.575Z,577.23
2022-09-09T16:18:32.006Z,569.63
2022-09-09T16:20:58.391Z,565.27
2022-09-09T16:23:25.179Z,574.83
2022-09-09T16:25:51.588Z,575.43
2022-09-09T16:28:17.995Z,576.83
2022-09-09T16:30:44.396Z,576.87
2022-09-09T16:33:10.809Z,575.33
2022-09-09T16:35:37.244Z,567.67
2022-09-09T16:38:03.658Z,576.27
2022-09-09T16:40:30.064Z,580.60
2022-09-09T16:42:56.484Z,570.27
2022-09-09T16:45:22.868Z,574.73
2022-09-09T16:47:49.274Z,567.23
2022-09-09T16:50:15.677Z,573.37
2022-09-09T16:52:42.094Z,572.33
2022-09-09T16:55:08.511Z,574.07
2022-09-09T16:57:34.921Z,564.47
2022-09-09T17:00:01.303Z,574.20
2022-09-09T17:02:27.793Z,571.47
2022-09-09T17:04:54.224Z,579.43
2022-09-09T17:07:20.658Z,570.83
2022-09-09T17:09:47.105Z,572.87
2022-09-09T17:12:13.516Z,574.63
2022-09-09T17:14:39.913Z,579.77
2022-09-09T17:17:25.015Z,564.13
2022-09-09T17:19:52.689Z,566.73
2022-09-09T17:22:20.149Z,571.90
2022-09-09T17:24:46.552Z,574.20
2022-09-09T17:27:12.961Z,579.27
2022-09-09T17:29:39.374Z,566.37
2022-09-09T17:32:05.794Z,577.00
2022-09-09T17:34:32.196Z,583.47
2022-09-09T17:36:58.641Z,579.00
2022-09-09T17:39:25.041Z,570.57
2022-09-09T17:41:51.455Z,561.40
2022-09-09T17:44:17.881Z,573.17
2022-09-09T17:46:44.370Z,564.50
2022-09-09T17:49:10.829Z,569.23
2022-09-09T17:51:37.252Z,566.27
2022-09-09T17:54:03.666Z,578.57
2022-09-09T17:56:30.116Z,571.87
2022-09-09T17:58:56.515Z,567.33
2022-09-09T18:01:22.958Z,577.00
2022-09-09T18:03:49.411Z,576.37
2022-09-09T18:06:15.853Z,572.07
2022-09-09T18:08:42.275Z,561.40
2022-09-09T18:11:08.685Z,566.90
2022-09-09T18:13:35.102Z,566.60
2022-09-09T18:16:01.587Z,576.53
2022-09-09T18:18:28.035Z,566.30
2022-09-09T18:20:54.408Z,560.70
2022-09-09T18:23:20.812Z,576.73
2022-09-09T18:25:47.203Z,567.33
2022-09-09T18:28:13.616Z,575.70
2022-09-09T18:30:40.024Z,566.50
2022-09-09T18:33:06.439Z,567.80
2022-09-09T18:35:32.859Z,566.63
2022-09-09T18:37:59.288Z,570.17
2022-09-09T18:40:25.703Z,577.63
2022-09-09T18:42:52.133Z,569.37
2022-09-09T18:45:18.539Z,582.30
2022-09-09T18:47:44.942Z,565.97
2022-09-09T18:50:11.360Z,579.93
2022-09-09T18:52:37.785Z,574.70
2022-09-09T18:55:04.177Z,578.83
2022-09-09T18:57:35.852Z,577.40
2022-09-09T19:00:02.824Z,578.77
2022-09-09T19:02:29.252Z,570.13
2022-09-09T19:04:55.664Z,567.90
2022-09-09T19:07:22.079Z,565.97
2022-09-09T19:09:48.502Z,570.03
2022-09-09T19:12:14.936Z,565.90
2022-09-09T19:14:41.566Z,570.20
2022-09-09T19:17:07.973Z,570.87
2022-09-09T19:19:34.372Z,574.60
2022-09-09T19:22:00.793Z,568.50
2022-09-09T19:24:27.213Z,555.80
2022-09-09T19:26:53.625Z,569.40
2022-09-09T19:29:20.130Z,573.37
2022-09-09T19:32:02.217Z,577.30
2022-09-09T19:34:32.921Z,560.00
2022-09-09T19:36:59.408Z,560.63
2022-09-09T19:39:25.799Z,564.87
2022-09-09T19:41:52.204Z,569.43
2022-09-09T19:44:18.588Z,571.13
2022-09-09T19:46:44.995Z,578.73
2022-09-09T19:49:11.381Z,577.87
2022-09-09T19:51:37.809Z,549.00
2022-09-09T19:54:04.212Z,569.73
2022-09-09T19:56:30.650Z,544.97
2022-09-09T19:58:57.040Z,571.73
2022-09-09T20:01:23.545Z,568.07
2022-09-09T20:03:50.021Z,570.70
2022-09-09T20:06:16.422Z,576.73
2022-09-09T20:08:42.816Z,580.13
2022-09-09T20:11:09.218Z,572.50
2022-09-09T20:13:35.608Z,576.63
2022-09-09T20:16:02.054Z,572.43
2022-09-09T20:18:28.479Z,578.50
2022-09-09T20:20:54.872Z,585.30
2022-09-09T20:23:21.295Z,570.60
2022-09-09T20:25:47.734Z,583.30
2022-09-09T20:28:14.148Z,568.30
2022-09-09T20:30:40.603Z,582.70
2022-09-09T20:33:07.023Z,577.20
2022-09-09T20:35:33.411Z,574.73
2022-09-09T20:37:59.812Z,571.07
2022-09-09T20:40:29.266Z,574.50
2022-09-09T20:42:57.930Z,560.53
2022-09-09T20:45:24.326Z,566.33
2022-09-09T20:47:50.728Z,579.77
2022-09-09T20:50:17.103Z,572.40
2022-09-09T20:52:43.521Z,568.10
2022-09-09T20:55:09.903Z,565.07
2022-09-09T20:57:36.320Z,570.23
2022-09-09T21:00:02.784Z,563.13
2022-09-09T21:02:29.313Z,541.50
2022-09-09T21:04:55.731Z,568.73
2022-09-09T21:07:22.154Z,573.90
2022-09-09T21:09:48.550Z,567.73
2022-09-09T21:12:14.955Z,574.07
2022-09-09T21:14:41.358Z,579.33
2022-09-09T21:17:07.756Z,574.27
2022-09-09T21:19:34.149Z,573.30
2022-09-09T21:22:00.570Z,566.30
2022-09-09T21:24:26.960Z,565.23
2022-09-09T21:26:53.374Z,561.73
2022-09-09T21:29:19.779Z,556.00
2022-09-09T21:31:46.218Z,564.67
2022-09-09T21:34:12.634Z,560.40
2022-09-09T21:36:39.030Z,559.80
2022-09-09T21:39:05.413Z,558.67
2022-09-09T21:41:31.813Z,563.63
2022-09-09T21:43:58.203Z,564.03
2022-09-09T21:46:24.609Z,556.33
2022-09-09T21:48:51.065Z,551.67
2022-09-09T21:51:17.474Z,553.47
2022-09-09T21:53:43.859Z,563.37
2022-09-09T21:56:10.269Z,563.53
2022-09-09T21:58:36.771Z,564.83
2022-09-09T22:01:03.248Z,564.37
2022-09-09T22:03:29.670Z,562.57
2022-09-09T22:05:56.073Z,551.50
2022-09-09T22:08:22.482Z,551.03
2022-09-09T22:10:48.895Z,540.77
2022-09-09T22:13:15.297Z,554.80
2022-09-09T22:15:41.761Z,556.20
2022-09-09T22:18:08.199Z,555.40
2022-09-09T22:20:34.576Z,561.17
2022-09-09T22:23:00.991Z,561.63
2022-09-09T22:25:27.411Z,551.67
2022-09-09T22:27:53.799Z,564.77
2022-09-09T22:30:20.205Z,564.13
2022-09-09T22:32:46.615Z,555.10
2022-09-09T22:35:13.025Z,553.27
2022-09-09T22:37:39.424Z,549.47
2022-09-09T22:40:05.895Z,563.53
2022-09-09T22:42:32.390Z,556.37
2022-09-09T22:44:58.808Z,553.33
2022-09-09T22:47:25.228Z,563.07
2022-09-09T22:49:51.690Z,559.53
2022-09-09T22:52:18.095Z,555.50
2022-09-09T22:54:44.507Z,553.37
2022-09-09T22:57:10.942Z,557.77
2022-09-09T22:59:37.371Z,554.57
2022-09-09T23:02:03.791Z,567.13
2022-09-09T23:04:30.210Z,552.93
2022-09-09T23:06:56.669Z,564.23
2022-09-09T23:09:23.114Z,556.47
2022-09-09T23:11:49.531Z,554.90
2022-09-09T23:14:15.965Z,561.93
2022-09-09T23:16:42.398Z,554.93
2022-09-09T23:19:08.808Z,552.57
2022-09-09T23:21:35.266Z,561.70
2022-09-09T23:24:01.661Z,561.27
2022-09-09T23:26:28.137Z,553.23
2022-09-09T23:28:54.597Z,542.83
2022-09-09T23:31:21.112Z,551.67
2022-09-09T23:33:47.606Z,558.57
2022-09-09T23:36:14.044Z,552.83
2022-09-09T23:38:40.445Z,553.20
2022-09-09T23:41:06.963Z,551.83
2022-09-09T23:43:33.440Z,554.80
2022-09-09T23:45:59.868Z,548.30
2022-09-09T23:48:26.388Z,554.87
2022-09-09T23:50:52.819Z,565.40
2022-09-09T23:53:19.230Z,548.40
2022-09-09T23:55:45.651Z,533.37
2022-09-09T23:58:12.083Z,541.83
